Time;durP1;ratioP1;P1;durP2;ratioP2;P2;SDS_P1;SDS_P2;PMS_P1;PMS_P2;Temp;Humidity;BMP_temperature;BMP_pressure;BME280_temperature;BME280_humidity;BME280_pressure;Samples;Min_cycle;Max_cycle;Signal;HPM_P1;HPM_P2
2023/10/21 00:00:21;;;;;;;9.20;8.50;;;;;;;17.82;49.80;92436.38;5041158;28;20188;-83
2023/10/21 00:02:46;;;;;;;9.80;8.73;;;;;;;17.65;51.24;92447.13;5043589;28;20270;-83
2023/10/21 00:05:12;;;;;;;8.43;7.63;;;;;;;17.66;51.46;92446.00;5050343;28;20213;-84
2023/10/21 00:07:37;;;;;;;10.43;8.63;;;;;;;17.62;52.14;92432.69;5048116;28;20201;-83
2023/10/21 00:10:06;;;;;;;9.97;8.93;;;;;;;17.55;52.01;92420.03;5048774;28;20226;-84
2023/10/21 00:12:35;;;;;;;14.13;9.57;;;;;;;17.51;52.41;92434.19;5045026;28;20187;-83
2023/10/21 00:15:01;;;;;;;12.03;10.40;;;;;;;17.02;55.13;92440.31;5047899;28;20221;-83
2023/10/21 00:17:28;;;;;;;13.83;10.07;;;;;;;16.80;56.25;92453.78;5047528;28;20208;-83
2023/10/21 00:19:53;;;;;;;11.03;10.03;;;;;;;16.78;56.54;92432.25;5049430;28;20211;-83
2023/10/21 00:22:19;;;;;;;12.93;9.67;;;;;;;16.49;58.77;92442.78;5049412;28;20192;-82
2023/10/21 00:24:44;;;;;;;11.50;9.60;;;;;;;16.52;57.75;92444.78;5049459;28;20220;-83
2023/10/21 00:27:10;;;;;;;12.73;10.30;;;;;;;16.47;58.96;92450.28;5045706;28;20225;-83
2023/10/21 00:29:35;;;;;;;11.97;9.27;;;;;;;16.47;58.78;92448.38;5049372;28;20233;-82
2023/10/21 00:32:04;;;;;;;11.17;10.17;;;;;;;16.52;58.49;92461.38;5049021;28;20220;-83
2023/10/21 00:34:30;;;;;;;12.47;10.10;;;;;;;16.17;59.82;92462.59;5048999;28;20218;-82
2023/10/21 00:36:56;;;;;;;12.73;10.10;;;;;;;16.07;59.91;92447.13;5048104;28;20850;-83
2023/10/21 00:39:21;;;;;;;10.50;9.07;;;;;;;16.15;61.26;92451.59;5038463;28;20233;-82
2023/10/21 00:41:47;;;;;;;10.13;8.93;;;;;;;15.92;61.49;92458.94;5049211;28;20194;-82
2023/10/21 00:44:12;;;;;;;9.83;9.07;;;;;;;15.76;62.28;92467.66;5049310;28;20234;-83
2023/10/21 00:46:37;;;;;;;10.60;9.50;;;;;;;16.13;60.25;92466.94;5048692;28;20257;-82
2023/10/21 00:49:04;;;;;;;10.43;9.40;;;;;;;15.79;63.21;92452.03;5049179;28;20234;-82
2023/10/21 00:51:29;;;;;;;11.27;9.13;;;;;;;15.70;62.73;92461.78;5048224;28;20178;-82
2023/10/21 00:53:57;;;;;;;10.13;9.20;;;;;;;15.73;62.17;92463.03;5047159;28;20248;-83
2023/10/21 00:56:23;;;;;;;11.93;9.40;;;;;;;15.63;63.27;92458.88;5047674;28;20206;-82
2023/10/21 00:58:50;;;;;;;11.40;9.17;;;;;;;15.37;64.44;92463.38;5047715;28;20311;-83
2023/10/21 01:01:15;;;;;;;10.40;9.23;;;;;;;15.63;63.00;92474.66;5045536;28;20213;-83
2023/10/21 01:03:41;;;;;;;10.40;9.70;;;;;;;15.54;63.29;92475.75;5048729;28;20213;-84
2023/10/21 01:06:06;;;;;;;9.97;8.80;;;;;;;15.64;62.78;92464.91;5050346;28;20193;-83
2023/10/21 01:08:45;;;;;;;10.90;9.37;;;;;;;15.21;64.27;92479.91;5048413;28;20220;-82
2023/10/21 01:11:11;;;;;;;10.20;9.30;;;;;;;15.46;62.31;92489.69;5044072;28;20186;-81
2023/10/21 01:13:36;;;;;;;10.07;9.10;;;;;;;15.53;62.45;92474.97;5047350;28;20241;-82
2023/10/21 01:16:02;;;;;;;10.03;9.33;;;;;;;15.43;63.32;92487.69;5048966;28;20201;-82
2023/10/21 01:18:33;;;;;;;10.47;9.50;;;;;;;15.52;62.67;92477.91;5047883;28;20226;-78
2023/10/21 01:20:59;;;;;;;10.60;9.47;;;;;;;15.44;64.29;92497.88;5049419;28;20186;-82
2023/10/21 01:23:25;;;;;;;10.20;9.40;;;;;;;15.66;63.96;92474.03;5046033;28;20971;-83
2023/10/21 01:25:50;;;;;;;11.07;9.77;;;;;;;15.36;64.90;92489.97;5048532;28;20174;-82
2023/10/21 01:28:16;;;;;;;10.70;9.53;;;;;;;15.33;65.26;92467.69;5048767;28;20255;-82
2023/10/21 01:30:41;;;;;;;15.07;9.67;;;;;;;15.05;66.84;92486.72;5048892;28;20189;-83
2023/10/21 01:33:07;;;;;;;10.30;9.50;;;;;;;15.06;65.06;92464.59;5039902;28;20229;-84
2023/10/21 01:35:32;;;;;;;10.80;9.70;;;;;;;14.99;66.55;92464.28;5053240;28;20200;-83
2023/10/21 01:37:57;;;;;;;9.23;8.33;;;;;;;15.01;65.41;92488.41;5050769;28;20711;-79
2023/10/21 01:40:23;;;;;;;10.93;9.83;;;;;;;15.06;66.06;92470.63;5046865;28;20461;-83
2023/10/21 01:42:48;;;;;;;9.73;8.93;;;;;;;15.19;65.66;92463.69;5042127;28;20202;-82
2023/10/21 01:45:13;;;;;;;11.90;10.27;;;;;;;15.07;64.93;92482.69;5051509;28;20249;-82
2023/10/21 01:47:39;;;;;;;12.40;9.63;;;;;;;15.12;63.47;92445.72;5052548;28;20249;-76
2023/10/21 01:50:08;;;;;;;10.83;9.70;;;;;;;15.21;66.23;92461.50;5071013;28;20199;-83
2023/10/21 01:52:35;;;;;;;10.13;9.23;;;;;;;15.09;66.36;92485.00;5080789;28;20186;-82
2023/10/21 01:55:06;;;;;;;16.63;9.77;;;;;;;15.51;62.14;92463.22;5061613;28;20218;-81
2023/10/21 01:57:32;;;;;;;11.00;10.00;;;;;;;15.41;65.51;92445.88;5072822;28;20201;-82
2023/10/21 02:00:01;;;;;;;10.53;9.70;;;;;;;14.66;66.93;92418.50;5069110;28;20221;-82
2023/10/21 02:02:27;;;;;;;10.73;9.73;;;;;;;14.94;66.63;92475.69;5048689;28;20169;-80
2023/10/21 02:04:52;;;;;;;9.53;8.83;;;;;;;15.07;65.31;92487.16;5075371;28;20228;-82
2023/10/21 02:07:19;;;;;;;10.43;9.53;;;;;;;15.05;65.93;92478.84;5085974;28;20185;-83
2023/10/21 02:09:44;;;;;;;11.40;9.90;;;;;;;14.99;64.70;92501.09;5071478;28;20276;-82
2023/10/21 02:12:10;;;;;;;13.30;9.00;;;;;;;15.07;63.79;92476.66;5065769;28;20189;-83
2023/10/21 02:14:35;;;;;;;10.53;9.63;;;;;;;15.12;65.71;92464.13;5076261;28;20848;-80
2023/10/21 02:17:00;;;;;;;9.90;9.00;;;;;;;14.98;66.65;92507.41;5071465;28;20204;-82
2023/10/21 02:19:26;;;;;;;10.37;9.57;;;;;;;14.88;65.87;92494.59;5056580;28;20865;-82
2023/10/21 02:21:51;;;;;;;10.00;8.90;;;;;;;14.99;66.31;92485.31;5051757;28;20242;-82
2023/10/21 02:24:17;;;;;;;10.30;9.20;;;;;;;14.99;66.46;92488.72;5050794;28;20247;-82
2023/10/21 02:26:42;;;;;;;9.73;8.93;;;;;;;14.89;66.82;92480.34;5048321;28;20186;-81
2023/10/21 02:29:08;;;;;;;11.93;9.47;;;;;;;14.78;68.21;92479.09;5050831;28;20228;-82
2023/10/21 02:31:34;;;;;;;11.47;10.27;;;;;;;14.40;69.86;92490.13;5051871;28;20196;-82
2023/10/21 02:33:59;;;;;;;12.10;9.90;;;;;;;14.52;70.11;92494.03;5043541;28;20312;-82
2023/10/21 02:36:25;;;;;;;11.93;9.60;;;;;;;14.60;68.99;92480.16;5051560;28;20253;-82
2023/10/21 02:38:51;;;;;;;13.77;9.33;;;;;;;14.42;70.40;92487.97;5046017;28;20218;-83
2023/10/21 02:41:17;;;;;;;11.60;9.63;;;;;;;14.37;70.08;92490.75;5043630;28;20181;-83
2023/10/21 02:43:42;;;;;;;10.83;9.83;;;;;;;14.56;67.14;92481.81;5040427;28;20925;-82
2023/10/21 02:46:09;;;;;;;10.50;8.40;;;;;;;14.71;66.12;92494.56;5051641;28;20289;-82
2023/10/21 02:48:35;;;;;;;10.43;9.33;;;;;;;14.92;63.88;92495.50;5042412;28;20221;-83
2023/10/21 02:51:20;;;;;;;10.40;9.43;;;;;;;15.16;63.16;92498.50;5044557;28;20210;-82
2023/10/21 02:53:45;;;;;;;12.63;9.63;;;;;;;15.29;64.16;92492.28;5031671;28;20229;-82
2023/10/21 02:56:13;;;;;;;11.03;9.33;;;;;;;15.24;63.85;92485.31;5038566;28;20210;-82
2023/10/21 02:58:39;;;;;;;11.30;9.27;;;;;;;15.09;64.72;92495.53;5039637;28;20214;-82
2023/10/21 03:01:19;;;;;;;13.10;10.17;;;;;;;14.98;65.04;92510.03;5050979;28;20220;-83
2023/10/21 03:03:46;;;;;;;10.23;9.27;;;;;;;15.23;62.79;92532.97;5045975;28;20221;-82
2023/10/21 03:06:15;;;;;;;10.93;9.87;;;;;;;15.18;64.47;92522.59;5046005;28;20447;-81
2023/10/21 03:08:41;;;;;;;10.07;9.23;;;;;;;14.94;64.84;92509.13;5039208;28;20224;-80
2023/10/21 03:11:07;;;;;;;12.67;9.50;;;;;;;14.96;65.64;92517.50;5050398;28;20178;-81
2023/10/21 03:13:34;;;;;;;12.03;10.97;;;;;;;14.96;65.52;92502.47;5049052;28;20218;-81
2023/10/21 03:16:07;;;;;;;9.57;8.90;;;;;;;15.06;64.24;92501.41;5041640;28;20214;-83
2023/10/21 03:18:35;;;;;;;12.07;10.80;;;;;;;14.75;66.88;92516.50;5044077;28;21040;-82
2023/10/21 03:21:01;;;;;;;15.07;9.67;;;;;;;14.89;66.06;92538.19;5050035;28;20205;-83
2023/10/21 03:23:27;;;;;;;12.30;9.97;;;;;;;14.80;67.33;92511.09;5050590;28;20222;-82
2023/10/21 03:25:56;;;;;;;11.50;10.53;;;;;;;14.78;65.99;92523.78;5044512;28;20190;-83
2023/10/21 03:28:22;;;;;;;11.20;10.00;;;;;;;14.76;66.55;92531.97;5050527;28;20217;-79
2023/10/21 03:30:48;;;;;;;9.93;9.03;;;;;;;14.74;66.27;92528.84;5050487;28;20201;-82
2023/10/21 03:33:13;;;;;;;11.20;10.13;;;;;;;14.65;66.92;92528.06;5050099;28;20225;-81
2023/10/21 03:35:39;;;;;;;11.07;10.07;;;;;;;14.83;65.95;92513.13;5049474;28;20182;-82
2023/10/21 03:38:04;;;;;;;10.63;9.57;;;;;;;14.71;68.08;92532.09;5061286;28;20233;-82
2023/10/21 03:40:29;;;;;;;12.80;10.53;;;;;;;14.66;66.97;92524.38;5038203;28;20212;-78
2023/10/21 03:42:55;;;;;;;10.50;9.43;;;;;;;14.75;66.63;92516.50;5050622;28;20197;-82
2023/10/21 03:45:21;;;;;;;25.23;11.90;;;;;;;14.54;69.69;92494.50;5047061;28;20221;-82
2023/10/21 03:47:46;;;;;;;18.03;10.30;;;;;;;14.52;70.32;92492.19;5048732;28;20204;-81
2023/10/21 03:50:11;;;;;;;16.90;9.90;;;;;;;14.58;69.94;92505.94;5050480;28;20163;-81
2023/10/21 03:52:39;;;;;;;14.00;10.33;;;;;;;14.42;70.15;92514.25;5051037;28;20189;-82
2023/10/21 03:55:05;;;;;;;10.80;9.97;;;;;;;14.46;67.91;92504.66;5042555;28;20239;-82
2023/10/21 03:57:31;;;;;;;10.37;9.43;;;;;;;14.55;67.27;92509.97;5048266;28;20206;-82
2023/10/21 03:59:57;;;;;;;9.83;8.97;;;;;;;15.24;63.97;92502.94;5048386;28;20234;-82
2023/10/21 04:02:23;;;;;;;11.20;10.10;;;;;;;15.12;64.56;92495.69;5046054;28;20171;-83
2023/10/21 04:04:48;;;;;;;10.43;9.53;;;;;;;15.13;63.81;92501.75;5042944;28;20295;-82
2023/10/21 04:07:14;;;;;;;12.90;9.20;;;;;;;15.07;64.76;92505.56;5030769;28;20191;-82
2023/10/21 04:09:39;;;;;;;12.20;10.13;;;;;;;14.95;66.07;92497.53;5046351;28;20209;-83
2023/10/21 04:12:05;;;;;;;10.03;9.13;;;;;;;14.93;65.55;92497.03;5050050;28;20192;-82
2023/10/21 04:14:30;;;;;;;13.10;9.80;;;;;;;15.03;64.50;92497.53;5049641;28;20222;-82
2023/10/21 04:16:55;;;;;;;10.63;9.53;;;;;;;14.93;64.31;92487.31;5049882;28;20245;-83
2023/10/21 04:19:21;;;;;;;10.37;9.47;;;;;;;15.05;65.46;92510.38;5043365;28;20219;-81
2023/10/21 04:21:46;;;;;;;15.37;10.27;;;;;;;15.01;66.40;92519.94;5042995;28;20217;-82
2023/10/21 04:24:11;;;;;;;9.73;9.10;;;;;;;14.93;66.23;92520.69;5036205;28;20281;-81
2023/10/21 04:26:37;;;;;;;11.83;10.87;;;;;;;14.74;66.23;92531.47;5037521;28;20198;-82
2023/10/21 04:29:02;;;;;;;11.63;9.27;;;;;;;14.84;64.67;92477.88;5047621;28;20316;-83
2023/10/21 04:31:36;;;;;;;11.43;10.13;;;;;;;15.29;63.80;92506.22;5048619;28;20201;-81
2023/10/21 04:34:01;;;;;;;14.47;10.53;;;;;;;15.11;65.92;92503.88;5049095;28;20214;-83
2023/10/21 04:36:26;;;;;;;12.10;9.43;;;;;;;14.90;66.06;92523.94;5049347;28;20206;-79
2023/10/21 04:38:52;;;;;;;10.83;9.93;;;;;;;14.87;66.75;92530.59;5049188;28;20210;-82
2023/10/21 04:41:17;;;;;;;14.53;9.40;;;;;;;15.14;65.10;92508.53;5048547;28;20190;-85
2023/10/21 04:43:42;;;;;;;10.67;9.63;;;;;;;15.22;65.64;92528.81;5041491;28;20249;-84
2023/10/21 04:46:08;;;;;;;19.67;10.63;;;;;;;14.90;67.59;92539.72;5041546;28;20235;-83
2023/10/21 04:48:33;;;;;;;15.20;10.30;;;;;;;14.78;67.61;92542.16;5048819;28;20230;-85
2023/10/21 04:50:59;;;;;;;16.43;10.53;;;;;;;14.81;67.62;92531.81;5049563;28;20212;-84
2023/10/21 04:53:24;;;;;;;12.53;11.40;;;;;;;14.63;69.92;92553.84;5046909;28;20221;-83
2023/10/21 04:55:49;;;;;;;11.37;10.20;;;;;;;14.71;67.78;92553.13;5047061;28;20240;-83
2023/10/21 04:58:15;;;;;;;11.00;10.10;;;;;;;14.67;68.30;92561.91;5047494;28;20221;-82
2023/10/21 05:00:40;;;;;;;13.60;10.23;;;;;;;14.77;68.18;92556.41;5047707;28;20178;-86
2023/10/21 05:03:05;;;;;;;11.17;10.07;;;;;;;14.57;69.97;92556.94;5042948;28;20234;-83
2023/10/21 05:05:34;;;;;;;11.73;10.60;;;;;;;14.61;69.50;92574.44;5048693;28;20193;-82
2023/10/21 05:08:00;;;;;;;15.37;10.63;;;;;;;14.51;70.97;92568.69;5038247;28;20333;-83
2023/10/21 05:10:25;;;;;;;10.57;9.43;;;;;;;14.45;72.01;92589.03;5041786;28;20188;-83
2023/10/21 05:12:51;;;;;;;13.70;10.50;;;;;;;14.45;71.02;92589.81;5047550;28;20833;-83
2023/10/21 05:15:17;;;;;;;13.83;9.73;;;;;;;14.54;70.40;92589.84;5049181;28;20288;-79
2023/10/21 05:17:42;;;;;;;11.17;10.03;;;;;;;14.60;71.50;92593.13;5039580;28;20312;-82
2023/10/21 05:20:08;;;;;;;11.43;10.40;;;;;;;14.35;71.69;92570.88;5048417;28;20468;-82
2023/10/21 05:22:34;;;;;;;14.93;9.70;;;;;;;14.56;70.65;92615.81;5035055;28;20183;-83
2023/10/21 05:24:59;;;;;;;12.03;9.83;;;;;;;14.64;71.14;92580.91;5046021;28;20264;-83
2023/10/21 05:27:24;;;;;;;13.07;9.07;;;;;;;14.63;71.31;92603.03;5048543;28;20198;-79
2023/10/21 05:29:50;;;;;;;14.23;9.63;;;;;;;15.01;68.24;92620.63;5049593;28;20241;-83
2023/10/21 05:32:15;;;;;;;10.97;9.87;;;;;;;15.31;66.55;92608.50;5047985;28;20182;-85
2023/10/21 05:34:41;;;;;;;13.90;11.03;;;;;;;15.35;67.54;92594.41;5043931;28;20277;-83
2023/10/21 05:37:06;;;;;;;13.13;10.70;;;;;;;14.94;71.35;92620.28;5048810;28;20224;-83
2023/10/21 05:39:32;;;;;;;12.50;9.47;;;;;;;15.20;70.35;92589.59;5047552;28;20222;-84
2023/10/21 05:41:57;;;;;;;10.30;9.50;;;;;;;15.21;70.64;92611.41;5044497;28;20270;-83
2023/10/21 05:44:22;;;;;;;10.10;9.07;;;;;;;15.19;70.64;92606.44;5043431;28;20233;-83
2023/10/21 05:46:48;;;;;;;16.53;9.57;;;;;;;15.01;70.95;92620.63;5041963;28;20217;-83
2023/10/21 05:49:13;;;;;;;11.23;9.37;;;;;;;15.10;71.75;92603.03;5045162;28;20226;-83
2023/10/21 05:51:39;;;;;;;10.37;8.93;;;;;;;15.15;73.18;92634.44;5043077;28;20241;-83
2023/10/21 05:54:04;;;;;;;13.13;9.17;;;;;;;15.45;72.05;92630.22;5048678;28;20220;-79
2023/10/21 05:56:30;;;;;;;14.63;11.53;;;;;;;15.59;68.26;92636.13;5043068;28;20199;-82
2023/10/21 05:58:55;;;;;;;13.00;10.40;;;;;;;15.72;68.55;92645.75;5047282;28;20222;-84
2023/10/21 06:01:21;;;;;;;16.30;10.40;;;;;;;15.79;69.18;92641.56;5042532;28;20273;-81
2023/10/21 06:03:46;;;;;;;14.57;10.33;;;;;;;15.90;68.87;92644.66;5048516;28;20233;-83
2023/10/21 06:06:13;;;;;;;20.87;9.80;;;;;;;15.68;71.74;92660.59;5048728;28;20182;-83
2023/10/21 06:08:38;;;;;;;13.10;10.10;;;;;;;15.78;68.63;92647.13;5048196;28;20242;-82
2023/10/21 06:11:04;;;;;;;14.07;9.30;;;;;;;15.75;68.98;92660.91;5047752;28;20189;-83
2023/10/21 06:13:29;;;;;;;14.43;10.30;;;;;;;15.93;68.24;92668.53;5048445;28;20240;-84
2023/10/21 06:15:54;;;;;;;11.97;10.77;;;;;;;15.92;68.24;92647.78;5043992;28;20186;-83
2023/10/21 06:18:20;;;;;;;13.93;10.63;;;;;;;16.36;65.66;92647.41;5051084;28;20222;-84
2023/10/21 06:20:48;;;;;;;14.10;9.77;;;;;;;16.41;65.63;92662.28;5051894;28;20249;-83
2023/10/21 06:23:14;;;;;;;12.90;10.30;;;;;;;16.27;66.99;92664.31;5040926;28;20226;-84
2023/10/21 06:25:40;;;;;;;20.37;10.47;;;;;;;16.35;65.26;92666.19;5039775;28;20213;-83
2023/10/21 06:28:05;;;;;;;17.50;10.77;;;;;;;16.66;65.69;92632.50;5050580;28;20229;-84
2023/10/21 06:30:31;;;;;;;12.40;11.23;;;;;;;16.70;65.22;92644.75;5035157;28;20186;-85
2023/10/21 06:32:57;;;;;;;13.50;9.77;;;;;;;16.71;64.29;92651.56;5049255;28;20254;-84
2023/10/21 06:35:22;;;;;;;17.50;11.50;;;;;;;16.84;64.03;92666.41;5050221;28;20182;-82
2023/10/21 06:37:49;;;;;;;13.33;9.87;;;;;;;16.93;64.55;92656.63;5055182;28;20209;-83
2023/10/21 06:40:15;;;;;;;10.23;9.33;;;;;;;16.76;66.17;92659.28;5047217;28;20181;-83
2023/10/21 06:42:40;;;;;;;13.70;10.13;;;;;;;16.81;64.47;92651.22;5051388;28;20194;-82
2023/10/21 06:45:06;;;;;;;9.67;8.87;;;;;;;16.85;65.43;92672.47;5041173;28;20182;-84
2023/10/21 06:47:32;;;;;;;21.27;9.87;;;;;;;17.28;65.00;92647.47;5047144;28;20250;-85
2023/10/21 06:49:58;;;;;;;13.10;9.60;;;;;;;17.38;65.58;92654.25;5045815;28;20221;-83
2023/10/21 06:52:23;;;;;;;12.30;9.97;;;;;;;17.45;65.86;92676.44;5047373;28;20236;-83
2023/10/21 06:54:50;;;;;;;11.57;10.13;;;;;;;17.55;65.06;92665.53;5042554;28;21100;-84
2023/10/21 06:57:19;;;;;;;11.13;10.03;;;;;;;17.48;65.54;92670.53;5047981;28;20296;-84
2023/10/21 06:59:46;;;;;;;13.80;10.00;;;;;;;17.82;63.58;92671.44;5050460;28;20233;-83
2023/10/21 07:02:11;;;;;;;12.27;9.90;;;;;;;17.80;63.71;92663.84;5051664;28;20186;-84
2023/10/21 07:04:37;;;;;;;15.87;9.27;;;;;;;18.06;62.79;92663.63;5045976;28;20223;-83
2023/10/21 07:07:03;;;;;;;10.60;9.53;;;;;;;18.06;61.77;92675.00;5049615;28;20185;-84
2023/10/21 07:09:30;;;;;;;14.63;10.30;;;;;;;18.21;61.22;92668.34;5048116;28;20210;-83
2023/10/21 07:11:55;;;;;;;13.33;9.60;;;;;;;18.29;62.63;92656.94;5049030;28;20220;-81
2023/10/21 07:14:21;;;;;;;15.53;10.97;;;;;;;18.21;64.47;92676.28;5045231;28;20223;-84
2023/10/21 07:16:46;;;;;;;12.40;10.47;;;;;;;18.37;62.81;92662.16;5054396;28;20221;-83
2023/10/21 07:19:12;;;;;;;14.33;9.27;;;;;;;18.24;62.59;92649.97;5049282;28;20217;-84
2023/10/21 07:21:37;;;;;;;10.27;9.27;;;;;;;18.55;60.40;92654.88;5051354;28;20166;-84
2023/10/21 07:24:03;;;;;;;10.10;9.07;;;;;;;18.49;60.55;92641.06;5049436;28;20279;-83
2023/10/21 07:26:47;;;;;;;14.17;9.50;;;;;;;18.66;60.55;92648.06;5049591;28;20246;-83
2023/10/21 07:29:13;;;;;;;10.43;9.37;;;;;;;19.10;59.09;92655.19;5048985;28;20252;-84
2023/10/21 07:31:41;;;;;;;10.93;9.43;;;;;;;19.29;57.17;92634.31;5051111;28;20186;-87
2023/10/21 07:34:07;;;;;;;22.03;10.37;;;;;;;19.28;58.04;92653.94;5050400;28;20254;-83
2023/10/21 07:36:33;;;;;;;13.13;9.87;;;;;;;19.38;58.54;92658.03;5049675;28;20206;-83
2023/10/21 07:38:58;;;;;;;17.17;9.90;;;;;;;19.60;56.27;92655.69;5050358;28;20848;-84
2023/10/21 07:41:24;;;;;;;10.97;9.57;;;;;;;19.88;54.83;92659.19;5050353;28;20196;-84
2023/10/21 07:43:49;;;;;;;13.00;10.07;;;;;;;20.06;53.82;92644.56;5049359;28;20511;-86
2023/10/21 07:46:14;;;;;;;16.53;10.13;;;;;;;20.01;55.88;92668.69;5050427;28;20726;-80
2023/10/21 07:48:40;;;;;;;10.80;9.73;;;;;;;20.04;54.01;92668.00;5050321;28;20223;-82
2023/10/21 07:51:05;;;;;;;11.10;10.30;;;;;;;20.02;55.15;92664.91;5048348;28;20199;-85
2023/10/21 07:53:31;;;;;;;11.77;9.10;;;;;;;20.12;53.95;92659.16;5044592;28;20219;-85
2023/10/21 07:55:56;;;;;;;15.33;8.90;;;;;;;20.17;54.48;92655.53;5048377;28;20577;-87
2023/10/21 07:58:23;;;;;;;17.97;9.40;;;;;;;20.57;50.54;92654.41;5048844;28;20227;-85
2023/10/21 08:00:48;;;;;;;12.73;9.83;;;;;;;20.50;50.54;92664.03;5048460;28;20181;-85
2023/10/21 08:03:14;;;;;;;14.03;9.77;;;;;;;20.62;50.67;92671.97;5049832;28;20223;-85
2023/10/21 08:05:40;;;;;;;14.23;9.93;;;;;;;20.51;53.32;92682.25;5050421;28;20177;-85
2023/10/21 08:08:05;;;;;;;18.20;8.93;;;;;;;20.62;52.51;92678.00;5041357;28;20240;-86
2023/10/21 08:10:31;;;;;;;12.43;10.40;;;;;;;20.64;52.51;92680.34;5035824;28;20205;-87
2023/10/21 08:12:56;;;;;;;11.57;10.47;;;;;;;20.76;48.99;92668.91;5048324;28;20196;-82
2023/10/21 08:15:21;;;;;;;14.45;10.90;;;;;;;20.79;49.86;92665.56;5049232;28;20251;-86
2023/10/21 08:17:47;;;;;;;12.50;9.80;;;;;;;20.72;49.93;92670.72;5038769;28;20828;-84
2023/10/21 08:20:12;;;;;;;11.20;9.77;;;;;;;20.73;49.25;92662.41;5045923;28;20197;-85
2023/10/21 08:22:37;;;;;;;10.02;8.93;;;;;;;20.70;50.65;92674.44;5049967;28;20287;-84
2023/10/21 08:25:03;;;;;;;16.88;10.40;;;;;;;20.87;48.13;92659.34;5048215;28;20236;-85
2023/10/21 08:27:28;;;;;;;15.20;10.23;;;;;;;20.60;50.46;92672.31;5048965;28;20188;-82
2023/10/21 08:29:54;;;;;;;15.70;10.40;;;;;;;20.70;50.23;92663.84;5049287;28;20219;-85
2023/10/21 08:32:20;;;;;;;13.13;9.93;;;;;;;20.86;48.31;92647.19;5049772;28;20179;-88
2023/10/21 08:34:45;;;;;;;10.83;9.73;;;;;;;20.93;47.93;92644.72;5049298;28;20231;-86
2023/10/21 08:37:11;;;;;;;15.07;9.52;;;;;;;21.55;45.15;92661.47;5044802;28;20214;-85
2023/10/21 08:39:37;;;;;;;11.10;10.13;;;;;;;21.62;46.46;92674.16;5041914;28;20244;-87
2023/10/21 08:42:02;;;;;;;14.20;10.43;;;;;;;21.61;47.94;92665.41;5045752;28;20190;-84
2023/10/21 08:44:30;;;;;;;11.70;10.15;;;;;;;21.48;48.77;92642.69;5049321;28;20215;-85
2023/10/21 08:46:57;;;;;;;10.48;9.38;;;;;;;21.53;49.94;92678.84;5052129;28;20224;-85
2023/10/21 08:49:23;;;;;;;16.73;10.63;;;;;;;21.69;50.57;92692.91;5047135;28;20243;-82
2023/10/21 08:51:51;;;;;;;16.73;10.07;;;;;;;21.56;49.02;92657.69;5049381;28;20183;-85
2023/10/21 08:54:18;;;;;;;10.77;9.65;;;;;;;21.83;47.33;92672.78;5047749;28;20259;-85
2023/10/21 08:56:44;;;;;;;15.13;9.90;;;;;;;21.80;46.80;92675.34;5045935;28;20217;-86
2023/10/21 08:59:09;;;;;;;13.05;10.05;;;;;;;22.09;44.93;92669.53;5048832;28;20231;-81
2023/10/21 09:01:36;;;;;;;11.43;9.88;;;;;;;22.18;46.93;92678.09;5048058;28;20183;-84
2023/10/21 09:04:03;;;;;;;11.55;10.30;;;;;;;22.41;45.97;92673.66;5060391;28;20281;-85
2023/10/21 09:06:29;;;;;;;17.25;10.05;;;;;;;22.35;46.27;92663.63;5078513;28;20187;-85
2023/10/21 09:08:54;;;;;;;11.85;10.02;;;;;;;22.68;45.11;92638.09;5077121;28;20248;-87
2023/10/21 09:11:24;;;;;;;13.30;9.52;;;;;;;22.53;44.61;92665.56;5069559;28;20193;-84
2023/10/21 09:13:52;;;;;;;16.05;9.77;;;;;;;22.83;45.33;92658.56;5078568;28;21085;-84
2023/10/21 09:16:19;;;;;;;11.13;9.82;;;;;;;22.99;43.27;92610.53;5068933;28;20218;-85
2023/10/21 09:19:04;;;;;;;16.95;9.85;;;;;;;23.29;36.64;92635.41;5040639;28;20217;-81
2023/10/21 09:21:39;;;;;;;13.63;9.52;;;;;;;23.04;38.90;92640.28;5049136;28;20189;-83
2023/10/21 09:24:09;;;;;;;12.27;8.93;;;;;;;23.28;39.27;92668.50;5048608;28;20227;-86
2023/10/21 09:26:47;;;;;;;12.45;9.13;;;;;;;23.49;38.15;92612.88;5049200;28;20560;-87
2023/10/21 09:29:16;;;;;;;18.08;9.27;;;;;;;23.72;38.95;92589.63;5041382;28;20264;-83
2023/10/21 09:31:41;;;;;;;15.77;9.52;;;;;;;23.73;35.84;92639.16;5042604;28;20211;-86
2023/10/21 09:34:07;;;;;;;15.23;9.15;;;;;;;23.86;37.83;92648.47;5044944;28;20236;-86
2023/10/21 09:36:41;;;;;;;9.95;8.93;;;;;;;23.92;38.94;92640.94;5051179;28;20205;-86
2023/10/21 09:39:07;;;;;;;10.38;8.40;;;;;;;23.94;34.27;92623.44;5051137;28;20246;-84
2023/10/21 09:41:35;;;;;;;8.70;8.00;;;;;;;24.03;36.60;92615.22;5051298;28;20188;-84
2023/10/21 09:44:03;;;;;;;13.05;8.43;;;;;;;24.08;35.32;92625.59;5048059;28;20235;-82
2023/10/21 09:46:31;;;;;;;9.80;8.75;;;;;;;24.21;34.26;92592.19;5044666;28;20248;-84
2023/10/21 09:49:03;;;;;;;11.38;8.82;;;;;;;24.19;36.61;92581.16;5048694;28;20262;-88
2023/10/21 09:51:33;;;;;;;12.88;9.00;;;;;;;24.32;33.06;92633.91;5047642;28;20176;-83
2023/10/21 09:54:00;;;;;;;10.60;7.88;;;;;;;24.51;34.83;92649.78;5052706;28;20224;-83
2023/10/21 09:56:27;;;;;;;16.42;8.40;;;;;;;24.62;31.64;92601.84;5052507;28;20258;-80
2023/10/21 09:58:54;;;;;;;12.40;8.88;;;;;;;24.84;31.73;92601.72;5052227;28;20232;-83
2023/10/21 10:01:23;;;;;;;12.13;7.35;;;;;;;24.99;31.18;92603.44;5051625;28;20233;-83
2023/10/21 10:03:51;;;;;;;14.27;7.47;;;;;;;24.98;31.41;92628.59;5052292;28;20226;-81
2023/10/21 10:06:19;;;;;;;13.85;8.43;;;;;;;24.91;31.44;92593.03;5050438;28;20220;-82
2023/10/21 10:08:47;;;;;;;9.65;7.95;;;;;;;24.99;31.09;92605.31;5052269;28;20240;-82
2023/10/21 10:11:16;;;;;;;13.60;7.97;;;;;;;24.97;29.25;92595.00;5051498;28;20202;-84
2023/10/21 10:13:46;;;;;;;21.70;7.63;;;;;;;25.08;29.83;92600.44;5051485;28;20220;-83
2023/10/21 10:16:25;;;;;;;14.93;8.23;;;;;;;25.20;29.60;92592.16;5039412;28;20216;-82
2023/10/21 10:18:51;;;;;;;18.25;8.88;;;;;;;25.14;28.63;92586.38;5051286;28;20878;-83
2023/10/21 10:21:18;;;;;;;14.43;8.52;;;;;;;25.17;28.77;92576.84;5052692;28;20661;-84
2023/10/21 10:23:51;;;;;;;10.45;8.40;;;;;;;25.23;29.96;92596.78;5050959;28;20828;-82
2023/10/21 10:26:37;;;;;;;14.80;8.25;;;;;;;25.17;29.79;92582.97;5046554;28;20182;-83
2023/10/21 10:29:26;;;;;;;10.50;7.90;;;;;;;24.99;29.47;92554.56;5050887;28;20220;-84
2023/10/21 10:32:16;;;;;;;11.80;8.43;;;;;;;25.13;30.25;92573.38;5051466;28;20193;-83
2023/10/21 10:34:57;;;;;;;10.70;7.82;;;;;;;25.27;29.77;92565.50;5050900;28;20225;-83
2023/10/21 10:37:34;;;;;;;12.95;8.73;;;;;;;25.11;30.34;92568.41;5039384;28;20205;-83
2023/10/21 10:39:59;;;;;;;12.63;8.75;;;;;;;25.09;29.96;92560.00;5050530;28;20216;-84
2023/10/21 10:42:28;;;;;;;13.35;8.13;;;;;;;25.17;31.10;92572.28;5052011;28;20362;-82
2023/10/21 10:44:55;;;;;;;12.88;7.97;;;;;;;25.26;30.55;92527.28;5049083;28;20232;-85
2023/10/21 10:47:22;;;;;;;11.93;7.80;;;;;;;25.15;30.22;92537.13;5050411;28;20197;-84
2023/10/21 10:49:57;;;;;;;12.93;8.23;;;;;;;25.25;29.73;92544.47;5050804;28;20236;-82
2023/10/21 10:52:27;;;;;;;15.85;8.27;;;;;;;25.15;29.61;92523.03;5049492;28;20263;-81
2023/10/21 10:54:53;;;;;;;9.93;7.55;;;;;;;25.30;29.10;92516.63;5047869;28;20213;-82
2023/10/21 10:57:20;;;;;;;14.40;9.25;;;;;;;25.27;29.44;92533.41;5050012;28;20216;-82
2023/10/21 10:59:47;;;;;;;10.98;8.38;;;;;;;25.36;29.24;92530.44;5049332;28;20263;-83
2023/10/21 11:02:14;;;;;;;11.73;7.65;;;;;;;25.15;30.26;92488.28;5048111;28;20185;-82
2023/10/21 11:04:43;;;;;;;12.45;7.90;;;;;;;25.20;29.12;92511.97;5048476;28;20223;-84
2023/10/21 11:07:09;;;;;;;18.45;8.30;;;;;;;25.09;29.43;92532.53;5050549;28;20189;-82
2023/10/21 11:09:34;;;;;;;10.80;7.80;;;;;;;25.14;29.27;92492.06;5041614;28;20246;-84
2023/10/21 11:12:00;;;;;;;11.60;9.05;;;;;;;25.22;29.76;92541.78;5050793;28;20190;-82
2023/10/21 11:14:27;;;;;;;18.50;9.35;;;;;;;25.29;29.88;92523.88;5049531;28;20250;-82
2023/10/21 11:16:52;;;;;;;13.38;8.73;;;;;;;25.25;29.90;92547.16;5052043;28;20244;-81
2023/10/21 11:19:18;;;;;;;15.25;8.85;;;;;;;25.25;29.36;92531.13;5050082;28;20225;-83
2023/10/21 11:21:48;;;;;;;14.30;8.73;;;;;;;25.34;30.02;92541.50;5046589;28;20178;-83